Pagina principale
METAR-TAF:

METAR-TAF

Aeroporti :

Fiume, Croazia

latitudine: 45-13N, longitudine: 014-35E, altezza: 85 m

Osservazione

Il bollettino è stato emesso 39 minuti fa, alle 13:30 UTC
Vento 2 kt da direzioni variabili
Temperature 14°C
Umidità 63%
Pressione 1014 hPa
Visibilità 10 km o più
Poco nuvoloso ad un'altezza di 3000 ft

METAR: LDRI 061330Z VRB02KT 9999 FEW030 14/07 Q1014

Ora: 15:09 (14:09 UTC)

Previsione

Il bollettino è stato emesso 2 ore e 44 minuti fa, alle 11:25 UTC
Previsione valida dal 06 alle 12 UTC al 07 alle 12 UTC
Vento 2 kt da direzioni variabili
Visibilità 10 km o più
Nubi sparse ad un'altezza di 3000 ft
Probabilità 40% :
Temporaneamente
dal 07 alle 00 UTC al 07 alle 12 UTC
Nuvoloso ad un'altezza di 1400 ft
pioggia

TAF: LDRI 061125Z 0612/0712 VRB02KT 9999 SCT030 TX14/0612Z TN07/0621Z PROB40 TEMPO 0700/0712 RA BKN014

Osservazioni e previsioni meteorologiche di più di 4000 aeroporti (messaggi METAR e TAF).

Le stazioni disponibili sono rappresentate dai dischi gialli e rossi sulla carta.

Puntare il mouse per vedere il nome della stazione.

Clicca sopra per visualizzare le osservazioni e previsioni meteorologiche.

Per cambiare la mappa : fare clic sui pulsanti verdi con una croce nera per ingrandire, il pulsante verde con un trattino per diminuire, o sulla freccia verde per le mappe adiacenti.


METAR-TAF: